• Join FlightAware (Why Join?)
  • Login
  • US Flag 
10:55PM EDT


 

Airport Tracker/Info


-or-


 

Live Flight TrackerFlight Track Log ✈ CTL309 ✈ 06-May-2013 ✈ KBKL - KOSU

Flight Track Log - Related Links

Times and Time Zones

All times are in EDT time to prevent confusion due to time zone crossing. See the CTL309 flight status page for this flight to view local times or setup timezone preferences in your user account.

Time Position Orientation Groundspeed Altitude Reporting Facility
EDT Latitude Longitude Course Direction KTS MPH feet Rate Location/Type
09:56PM 41.5336 -81.6761 351° North 132 152 1,200  Level Cleveland Center
09:57PM 41.5628 -81.6819 351° North 149 171 2,000 1,020 Climbing Cleveland Center
09:58PM 41.6022 -81.6939 347° North 158 182 3,000 1,080 Climbing Cleveland Center
09:59PM 41.6186 -81.7275 303° West 137 158 4,200 1,020 Climbing Cleveland Center
10:00PM 41.5872 -81.7547 213° Southwest 125 144 5,100 720 Climbing Cleveland Center
10:01PM 41.5556 -81.7819 213° Southwest 146 168 5,700 540 Climbing Cleveland Center
10:02PM 41.5197 -81.8200 218° Southwest 159 183 6,200 240 Climbing Cleveland Center
10:03PM 41.4797 -81.8581 215° Southwest 176 203 6,200  Level Cleveland Center
10:04PM 41.4397 -81.8933 213° Southwest 175 201 6,200 -60 Level Cleveland Center
10:05PM 41.3997 -81.9311 215° Southwest 172 198 6,100  Descending Cleveland Center
10:06PM 41.3597 -81.9636 211° Southwest 173 199 6,200  Climbing Cleveland Center
10:08PM 41.2733 -82.0364 212° Southwest 169 194 6,200 -60 Level Cleveland Center
10:09PM 41.2331 -82.0742 215° Southwest 173 199 6,100 -60 Descending Cleveland Center
10:10PM 41.1931 -82.1092 213° Southwest 172 198 6,100  Level Cleveland Center
10:12PM 41.1022 -82.1847 212° Southwest 174 200 6,200  Climbing Indianapolis Center
10:13PM 41.0611 -82.2181 211° Southwest 173 199 6,200  Level Indianapolis Center
10:14PM 41.0203 -82.2528 213° Southwest 173 199 6,200 -60 Level Indianapolis Center
10:15PM 40.9789 -82.2856 211° Southwest 173 199 6,100 -120 Descending Indianapolis Center
10:17PM 40.9333 -82.3212 211° Southwest  Level FlightAware Approximate
10:17PM 40.8961 -82.3514 211° Southwest 172 198 6,000  Level Indianapolis Center
10:18PM 40.8539 -82.3839 210° Southwest 173 199 6,100 60 Climbing Indianapolis Center
10:19PM 40.8122 -82.4186 212° Southwest 174 200 6,200  Climbing Indianapolis Center
10:21PM 40.7691 -82.4518 210° Southwest  Level FlightAware Approximate
10:21PM 40.7294 -82.4922 210° Southwest 177 204 6,100  Level Indianapolis Center
10:22PM 40.6889 -82.5269 213° Southwest 173 199 6,100  Level Indianapolis Center
10:24PM 40.6469 -82.5566 208° Southwest  Level FlightAware Approximate
10:24PM 40.6072 -82.5975 208° Southwest 175 201 6,100  Level Indianapolis Center
10:26PM 40.5654 -82.6231 205° Southwest  Level FlightAware Approximate
10:27PM 40.5181 -82.6789 205° Southwest 179 206 6,200  Level Indianapolis Center
10:28PM 40.4758 -82.7156 213° Southwest 180 207 6,100 -60 Descending Indianapolis Center
10:29PM 40.4344 -82.7556 216° Southwest 182 209 6,100 -360 Level Indianapolis Center
10:31PM 40.3442 -82.8325 213° Southwest 195 224 5,100 -720 Descending Indianapolis Center
10:32PM 40.2972 -82.8756 215° Southwest 201 231 4,000 -1,080 Descending Indianapolis Center
10:33PM 40.2489 -82.9186 214° Southwest 205 236 3,000 -840 Descending Indianapolis Center
10:34PM 40.2022 -82.9617 215° Southwest 205 236 2,300 -540 Descending Indianapolis Center
10:35PM 40.1483 -83.0114 215° Southwest 183 211 1,800 -300 Descending Indianapolis Center
10:36PM 40.1197 -83.0367 214° Southwest 183 211 1,700 -120 Descending Indianapolis Center
10:37PM 40.1017 -83.0825 243° Southwest 160 184 1,600 -300 Descending Indianapolis Center
10:38PM 40.0783 -83.1069 219° Southwest 122 140 1,200 -300 Descending Indianapolis Center
10:39PM 40.0803 -83.0689 86° East 125 144 1,100 -120 Descending Indianapolis Center